Airport View

Enter AWOS ICAO identifier for current METAR.

ex. KFNL

KSTS 051349Z AUTO 00000KT 6SM BR OVC004 12/12 A2992 RMK AO2

5 Aug 2020 14:06

Phone: 707-573-8393

Other Area AWOS: KO69 - KDVO - KAPC - KVCB

TAF KSTS 051126Z 0512/0612 VRB03KT P6SM SCT004 TEMPO 0512/0516 1SM BR OVC003 FM051700 VRB04KT P6SM SCT010 FM052000 17011KT P6SM SKC FM060300 16007G15KT P6SM BKN012 FM060500 16005KT P6SM OVC010